createdAt,value
2022-10-26T00:01:09.600Z,9.69
2022-10-26T00:04:18.511Z,9.64
2022-10-26T00:07:21.068Z,9.47
2022-10-26T00:10:25.434Z,9.59
2022-10-26T00:13:30.925Z,9.53
2022-10-26T00:16:33.814Z,9.42
2022-10-26T00:19:38.153Z,9.42
2022-10-26T00:22:41.459Z,9.34
2022-10-26T00:25:44.931Z,9.28
2022-10-26T00:28:48.853Z,9.26
2022-10-26T00:31:51.835Z,9.21
2022-10-26T00:34:54.787Z,9.21
2022-10-26T00:37:57.375Z,9.20
2022-10-26T00:41:00.359Z,9.17
2022-10-26T00:44:41.232Z,9.16
2022-10-26T00:47:47.834Z,9.16
2022-10-26T00:50:52.376Z,9.09
2022-10-26T00:53:56.362Z,9.07
2022-10-26T00:56:59.663Z,9.02
2022-10-26T01:00:03.279Z,8.87
2022-10-26T01:03:07.662Z,8.81
2022-10-26T01:06:12.045Z,8.81
2022-10-26T01:09:15.574Z,8.64
2022-10-26T01:12:18.579Z,8.56
2022-10-26T01:15:29.608Z,8.50
2022-10-26T01:19:03.795Z,8.52
2022-10-26T01:22:36.599Z,8.46
2022-10-26T01:25:51.481Z,8.50
2022-10-26T01:28:59.946Z,8.53
2022-10-26T01:32:22.613Z,8.58
2022-10-26T01:35:30.172Z,8.55
2022-10-26T01:39:01.488Z,8.58
2022-10-26T01:42:08.351Z,8.50
2022-10-26T01:45:14.416Z,8.42
2022-10-26T01:48:20.561Z,8.36
2022-10-26T01:51:23.909Z,8.34
2022-10-26T01:54:26.709Z,8.29
2022-10-26T01:57:35.507Z,8.24
2022-10-26T02:00:46.758Z,8.24
2022-10-26T02:04:08.724Z,8.21
2022-10-26T02:07:15.437Z,8.19
2022-10-26T02:10:24.320Z,8.21
2022-10-26T02:13:39.944Z,8.13
2022-10-26T02:16:53.057Z,8.06
2022-10-26T02:20:03.787Z,8.08
2022-10-26T02:23:08.245Z,8.01
2022-10-26T02:26:14.748Z,7.99
2022-10-26T02:29:20.069Z,8.00
2022-10-26T02:32:26.239Z,7.98
2022-10-26T02:35:34.331Z,7.89
2022-10-26T02:38:40.047Z,7.72
2022-10-26T02:41:45.542Z,7.83
2022-10-26T02:45:03.107Z,7.81
2022-10-26T02:48:06.723Z,7.81
2022-10-26T02:51:11.473Z,7.82
2022-10-26T02:54:16.315Z,7.80
2022-10-26T02:57:25.099Z,7.78
2022-10-26T03:00:30.114Z,7.88
2022-10-26T03:03:33.965Z,7.82
2022-10-26T03:06:36.913Z,7.84
2022-10-26T03:09:39.431Z,7.77
2022-10-26T03:12:43.386Z,7.77
2022-10-26T03:15:45.918Z,7.68
2022-10-26T03:18:48.928Z,7.66
2022-10-26T03:21:51.447Z,7.45
2022-10-26T03:24:54.320Z,7.48
2022-10-26T03:28:02.036Z,7.51
2022-10-26T03:31:05.117Z,7.53
2022-10-26T03:34:07.639Z,7.44
2022-10-26T03:37:10.697Z,7.27
2022-10-26T03:40:13.711Z,7.23
2022-10-26T03:43:16.643Z,7.21
2022-10-26T03:46:19.182Z,7.20
2022-10-26T03:49:22.046Z,7.40
2022-10-26T03:52:24.835Z,7.44
2022-10-26T03:55:27.827Z,7.37
2022-10-26T03:58:30.584Z,7.41
2022-10-26T04:01:33.784Z,7.35
2022-10-26T04:04:36.778Z,7.25
2022-10-26T04:07:39.434Z,7.07
2022-10-26T04:10:42.369Z,6.97
2022-10-26T04:13:44.939Z,7.05
2022-10-26T04:16:47.810Z,7.18
2022-10-26T04:19:50.846Z,7.09
2022-10-26T04:23:04.859Z,7.14
2022-10-26T04:26:10.019Z,7.19
2022-10-26T04:29:13.809Z,7.28
2022-10-26T04:32:16.471Z,7.29
2022-10-26T04:35:19.338Z,7.11
2022-10-26T04:38:22.118Z,6.87
2022-10-26T04:41:24.946Z,6.85
2022-10-26T04:44:27.719Z,6.83
2022-10-26T04:47:30.567Z,6.86
2022-10-26T04:50:33.653Z,7.05
2022-10-26T04:53:38.369Z,7.04
2022-10-26T04:56:41.085Z,7.02
2022-10-26T04:59:44.003Z,7.00
2022-10-26T05:02:46.708Z,6.93
2022-10-26T05:05:49.691Z,7.18
2022-10-26T05:08:52.269Z,8.08
2022-10-26T05:11:55.197Z,8.11
2022-10-26T05:14:59.179Z,7.75
2022-10-26T05:18:05.627Z,7.50
2022-10-26T05:21:08.401Z,7.20
2022-10-26T05:24:12.564Z,7.26
2022-10-26T05:27:15.387Z,7.16
2022-10-26T05:30:18.341Z,7.11
2022-10-26T05:33:21.149Z,7.03
2022-10-26T05:36:24.064Z,6.99
2022-10-26T05:39:27.214Z,7.02
2022-10-26T05:42:30.084Z,7.01
2022-10-26T05:45:32.751Z,7.04
2022-10-26T05:48:35.632Z,7.18
2022-10-26T05:51:39.649Z,7.26
2022-10-26T05:54:42.496Z,7.31
2022-10-26T05:57:45.414Z,7.23
2022-10-26T06:01:07.947Z,7.10
2022-10-26T06:04:22.761Z,7.25
2022-10-26T06:07:25.670Z,7.38
2022-10-26T06:10:28.877Z,7.48
2022-10-26T06:13:31.980Z,7.57
2022-10-26T06:16:58.031Z,7.80
2022-10-26T06:24:03.051Z,8.07
2022-10-26T06:27:31.675Z,8.28
2022-10-26T06:30:34.775Z,8.38
2022-10-26T06:33:38.491Z,8.44
2022-10-26T06:36:42.212Z,8.71
2022-10-26T06:39:51.313Z,8.74
2022-10-26T06:42:57.006Z,8.77
2022-10-26T06:46:14.611Z,8.79
2022-10-26T06:49:29.036Z,8.89
2022-10-26T06:52:44.299Z,9.10
2022-10-26T06:55:50.257Z,9.24
2022-10-26T06:58:56.108Z,9.29
2022-10-26T07:02:02.809Z,9.49
2022-10-26T07:05:12.879Z,9.67
2022-10-26T07:08:15.823Z,9.77
2022-10-26T07:11:18.362Z,10.05
2022-10-26T07:14:21.258Z,10.19
2022-10-26T07:17:24.234Z,10.38
2022-10-26T07:20:27.298Z,10.59
2022-10-26T07:26:37.732Z,10.82
2022-10-26T07:29:41.041Z,10.97
2022-10-26T07:32:44.136Z,11.02
2022-10-26T07:35:46.729Z,11.20
2022-10-26T07:38:53.873Z,11.42
2022-10-26T07:41:58.846Z,11.56
2022-10-26T07:45:04.407Z,11.62
2022-10-26T07:48:07.603Z,11.69
2022-10-26T07:51:10.568Z,11.75
2022-10-26T07:54:13.084Z,11.85
2022-10-26T07:57:17.295Z,11.91
2022-10-26T08:00:20.182Z,12.05
2022-10-26T08:03:23.172Z,12.10
2022-10-26T08:06:25.805Z,12.18
2022-10-26T08:09:28.698Z,12.29
2022-10-26T08:12:31.252Z,12.49
2022-10-26T08:15:34.104Z,12.74
2022-10-26T08:18:37.019Z,12.97
2022-10-26T08:21:40.632Z,13.12
2022-10-26T08:24:46.741Z,13.30
2022-10-26T08:27:50.023Z,13.47
2022-10-26T08:30:52.653Z,13.63
2022-10-26T08:33:55.548Z,13.83
2022-10-26T08:36:58.349Z,14.00
2022-10-26T08:40:03.284Z,14.21
2022-10-26T08:43:20.039Z,14.37
2022-10-26T08:46:30.894Z,14.54
2022-10-26T08:49:52.435Z,14.64
2022-10-26T08:53:23.788Z,14.72
2022-10-26T08:56:39.879Z,14.95
2022-10-26T09:00:04.657Z,15.06
2022-10-26T09:03:18.406Z,15.15
2022-10-26T09:06:34.530Z,15.27
2022-10-26T09:10:01.335Z,15.36
2022-10-26T09:13:14.846Z,15.43
2022-10-26T09:16:45.495Z,15.67
2022-10-26T09:19:54.240Z,15.85
2022-10-26T09:23:35.704Z,15.92
2022-10-26T09:27:20.515Z,15.93
2022-10-26T09:30:24.265Z,16.11
2022-10-26T09:33:28.756Z,16.32
2022-10-26T09:36:31.359Z,16.49
2022-10-26T09:39:47.558Z,16.65
2022-10-26T09:43:04.312Z,16.72
2022-10-26T09:46:15.990Z,16.63
2022-10-26T09:49:26.658Z,16.66
2022-10-26T09:52:29.642Z,16.65
2022-10-26T09:55:34.768Z,16.56
2022-10-26T09:58:46.614Z,16.66
2022-10-26T10:01:49.221Z,16.78
2022-10-26T10:04:53.012Z,16.78
2022-10-26T10:08:19.860Z,16.82
2022-10-26T10:11:26.874Z,16.91
2022-10-26T10:14:40.800Z,16.94
2022-10-26T10:17:53.141Z,17.00
2022-10-26T10:20:58.542Z,17.22
2022-10-26T10:24:01.610Z,17.23
2022-10-26T10:27:15.161Z,17.30
2022-10-26T10:30:30.032Z,17.37
2022-10-26T10:33:41.127Z,17.36
2022-10-26T10:36:44.121Z,17.41
2022-10-26T10:39:47.650Z,17.54
2022-10-26T10:42:52.311Z,17.55
2022-10-26T10:45:59.545Z,17.58
2022-10-26T10:49:16.660Z,17.63
2022-10-26T10:52:32.107Z,17.70
2022-10-26T10:55:35.216Z,17.71
2022-10-26T10:58:52.071Z,17.78
2022-10-26T11:02:36.813Z,17.74
2022-10-26T11:06:00.576Z,17.73
2022-10-26T11:09:11.615Z,17.87
2022-10-26T11:12:19.175Z,17.89
2022-10-26T11:15:26.324Z,17.94
2022-10-26T11:18:28.888Z,18.10
2022-10-26T11:21:37.943Z,18.40
2022-10-26T11:25:15.764Z,18.60
2022-10-26T11:28:40.479Z,18.73
2022-10-26T11:31:51.942Z,18.82
2022-10-26T11:35:12.618Z,18.78
2022-10-26T11:38:46.741Z,18.72
2022-10-26T11:42:30.150Z,18.73
2022-10-26T11:45:37.805Z,18.67
2022-10-26T11:48:41.805Z,18.73
2022-10-26T11:52:17.925Z,18.72
2022-10-26T11:55:23.343Z,18.67
2022-10-26T11:58:28.006Z,18.65
2022-10-26T12:01:33.741Z,18.66
2022-10-26T12:04:39.176Z,18.67
2022-10-26T12:07:46.786Z,18.60
2022-10-26T12:11:01.378Z,18.55
2022-10-26T12:14:19.516Z,18.53
2022-10-26T12:17:52.916Z,18.52
2022-10-26T12:21:04.656Z,18.53
2022-10-26T12:24:22.658Z,18.52
2022-10-26T12:27:45.573Z,18.57
2022-10-26T12:30:48.481Z,18.66
2022-10-26T12:33:51.674Z,18.57
2022-10-26T12:36:57.343Z,18.69
2022-10-26T12:40:31.401Z,18.74
2022-10-26T12:43:36.016Z,18.91
2022-10-26T12:46:39.452Z,19.04
2022-10-26T12:50:07.025Z,19.10
2022-10-26T12:53:19.779Z,19.00
2022-10-26T12:56:32.411Z,18.96
2022-10-26T13:00:14.708Z,18.93
2022-10-26T13:03:36.148Z,18.97
2022-10-26T13:06:58.723Z,19.08
2022-10-26T13:10:05.908Z,19.13
2022-10-26T13:13:09.083Z,19.06
2022-10-26T13:16:16.328Z,18.99
2022-10-26T13:19:36.819Z,18.96
2022-10-26T13:22:47.452Z,18.83
2022-10-26T13:26:12.890Z,18.78
2022-10-26T13:29:16.087Z,18.76
2022-10-26T13:32:19.613Z,18.78
2022-10-26T13:35:24.940Z,18.75
2022-10-26T13:38:33.020Z,18.77
2022-10-26T13:41:47.680Z,18.70
2022-10-26T13:44:53.567Z,18.65
2022-10-26T13:48:01.252Z,18.57
2022-10-26T13:51:12.249Z,18.61
2022-10-26T13:54:31.653Z,18.61
2022-10-26T13:57:38.253Z,18.51
2022-10-26T14:01:00.549Z,18.38
2022-10-26T14:04:17.111Z,18.23
2022-10-26T14:07:25.638Z,18.07
2022-10-26T14:10:32.974Z,17.91
2022-10-26T14:13:42.383Z,17.82
2022-10-26T14:16:46.831Z,17.70
2022-10-26T14:19:50.215Z,17.57
2022-10-26T14:22:53.108Z,17.45
2022-10-26T14:25:58.959Z,17.44
2022-10-26T14:29:02.395Z,17.35
2022-10-26T14:32:32.040Z,17.28
2022-10-26T14:35:42.058Z,17.17
2022-10-26T14:38:51.990Z,17.05
2022-10-26T14:41:56.142Z,16.96
2022-10-26T14:45:00.303Z,16.86
2022-10-26T14:48:06.019Z,16.77
2022-10-26T14:51:18.868Z,16.64
2022-10-26T14:54:24.609Z,16.57
2022-10-26T14:57:39.212Z,16.47
2022-10-26T15:00:43.293Z,16.38
2022-10-26T15:03:49.574Z,16.29
2022-10-26T15:09:59.959Z,16.12
2022-10-26T15:13:31.367Z,16.09
2022-10-26T15:16:35.147Z,15.99
2022-10-26T15:19:40.049Z,15.91
2022-10-26T15:22:48.743Z,15.85
2022-10-26T15:25:55.149Z,15.83
2022-10-26T15:28:59.367Z,15.78
2022-10-26T15:35:19.732Z,15.58
2022-10-26T15:38:22.635Z,15.50
2022-10-26T15:41:36.827Z,15.43
2022-10-26T15:44:42.374Z,15.38
2022-10-26T15:47:45.603Z,15.33
2022-10-26T15:50:48.790Z,15.34
2022-10-26T15:53:51.562Z,15.30
2022-10-26T15:56:54.638Z,15.26
2022-10-26T15:59:57.427Z,15.19
2022-10-26T16:03:00.313Z,15.17
2022-10-26T16:06:03.263Z,15.13
2022-10-26T16:09:08.011Z,15.07
2022-10-26T16:12:12.207Z,15.07
2022-10-26T16:15:23.130Z,15.06
2022-10-26T16:18:26.021Z,15.02
2022-10-26T16:21:28.758Z,14.98
2022-10-26T16:24:32.253Z,14.95
2022-10-26T16:27:34.825Z,14.92
2022-10-26T16:30:37.887Z,14.89
2022-10-26T16:33:40.586Z,14.87
2022-10-26T16:36:43.495Z,14.85
2022-10-26T16:39:46.153Z,14.84
2022-10-26T16:42:49.220Z,14.83
2022-10-26T16:45:54.323Z,14.85
2022-10-26T16:48:57.399Z,14.82
2022-10-26T16:52:00.159Z,14.79
2022-10-26T16:55:04.210Z,14.67
2022-10-26T16:58:06.851Z,14.76
2022-10-26T17:01:13.119Z,14.73
2022-10-26T17:04:16.018Z,14.75
2022-10-26T17:07:18.977Z,14.80
2022-10-26T17:10:22.161Z,14.79
2022-10-26T17:13:25.210Z,14.84
2022-10-26T17:16:28.039Z,14.87
2022-10-26T17:19:31.018Z,14.89
2022-10-26T17:22:33.943Z,14.92
2022-10-26T17:25:39.121Z,14.90
2022-10-26T17:28:43.334Z,14.87
2022-10-26T17:31:46.421Z,14.79
2022-10-26T17:34:49.315Z,14.79
2022-10-26T17:37:52.646Z,14.76
2022-10-26T17:41:00.462Z,14.72
2022-10-26T17:44:03.650Z,14.64
2022-10-26T17:47:06.575Z,14.55
2022-10-26T17:50:10.137Z,14.61
2022-10-26T17:53:12.903Z,14.58
2022-10-26T17:56:21.663Z,14.54
2022-10-26T17:59:24.528Z,14.52
2022-10-26T18:02:27.761Z,14.45
2022-10-26T18:05:31.846Z,14.40
2022-10-26T18:08:38.527Z,14.40
2022-10-26T18:11:41.724Z,14.38
2022-10-26T18:14:44.651Z,14.36
2022-10-26T18:17:50.773Z,14.37
2022-10-26T18:21:00.951Z,14.34
2022-10-26T18:24:05.444Z,14.35
2022-10-26T18:27:08.269Z,14.24
2022-10-26T18:30:11.763Z,14.26
2022-10-26T18:33:15.744Z,14.27
2022-10-26T18:36:19.357Z,14.26
2022-10-26T18:39:22.245Z,14.23
2022-10-26T18:42:27.233Z,14.27
2022-10-26T18:45:30.532Z,14.24
2022-10-26T18:48:34.497Z,14.23
2022-10-26T18:51:37.370Z,14.22
2022-10-26T18:54:41.050Z,14.18
2022-10-26T18:57:43.840Z,14.14
2022-10-26T19:00:46.982Z,14.09
2022-10-26T19:03:58.352Z,14.07
2022-10-26T19:07:01.769Z,14.03
2022-10-26T19:10:05.823Z,14.00
2022-10-26T19:13:09.032Z,13.96
2022-10-26T19:16:21.868Z,13.93
2022-10-26T19:19:36.515Z,13.86
2022-10-26T19:22:39.708Z,13.76
2022-10-26T19:25:42.843Z,13.73
2022-10-26T19:28:47.200Z,13.73
2022-10-26T19:31:54.179Z,13.77
2022-10-26T19:34:57.484Z,13.82
2022-10-26T19:38:00.723Z,13.87
2022-10-26T19:41:06.382Z,13.91
2022-10-26T19:44:11.775Z,13.95
2022-10-26T19:47:14.746Z,13.99
2022-10-26T19:50:17.711Z,13.98
2022-10-26T19:53:22.057Z,13.99
2022-10-26T19:56:25.220Z,13.93
2022-10-26T19:59:28.265Z,13.91
2022-10-26T20:02:31.365Z,13.86
2022-10-26T20:05:34.581Z,13.82
2022-10-26T20:08:38.175Z,13.80
2022-10-26T20:11:43.060Z,13.82
2022-10-26T20:14:45.945Z,13.79
2022-10-26T20:17:50.089Z,13.77
2022-10-26T20:20:52.971Z,13.66
2022-10-26T20:23:56.215Z,13.67
2022-10-26T20:26:58.739Z,13.69
2022-10-26T20:30:01.862Z,13.67
2022-10-26T20:33:05.544Z,13.71
2022-10-26T20:36:08.703Z,13.73
2022-10-26T20:39:11.731Z,13.71
2022-10-26T20:42:23.023Z,13.71
2022-10-26T20:45:29.731Z,13.64
2022-10-26T20:48:33.272Z,13.68
2022-10-26T20:52:02.681Z,13.70
2022-10-26T20:55:22.912Z,13.67
2022-10-26T20:58:37.496Z,13.67
2022-10-26T21:01:41.343Z,13.68
2022-10-26T21:04:43.879Z,13.68
2022-10-26T21:07:47.103Z,13.66
2022-10-26T21:10:51.213Z,13.63
2022-10-26T21:13:54.863Z,13.59
2022-10-26T21:16:57.442Z,13.54
2022-10-26T21:20:00.323Z,13.51
2022-10-26T21:23:02.906Z,13.52
2022-10-26T21:26:06.904Z,13.49
2022-10-26T21:29:10.648Z,13.49
2022-10-26T21:32:13.886Z,13.45
2022-10-26T21:35:16.556Z,13.49
2022-10-26T21:38:19.428Z,13.46
2022-10-26T21:41:26.621Z,13.46
2022-10-26T21:44:44.819Z,13.48
2022-10-26T21:47:52.217Z,13.44
2022-10-26T21:50:55.766Z,13.41
2022-10-26T21:53:58.677Z,13.40
2022-10-26T21:57:01.536Z,13.39
2022-10-26T22:00:05.356Z,13.43
2022-10-26T22:03:15.745Z,13.48
2022-10-26T22:09:27.597Z,13.47
2022-10-26T22:12:30.518Z,13.53
2022-10-26T22:15:33.046Z,13.50
2022-10-26T22:18:38.295Z,13.48
2022-10-26T22:21:41.927Z,13.45
2022-10-26T22:24:44.802Z,13.43
2022-10-26T22:27:48.353Z,13.36
2022-10-26T22:30:51.389Z,13.35
2022-10-26T22:34:01.941Z,13.41
2022-10-26T22:37:07.818Z,13.37
2022-10-26T22:40:11.200Z,13.36
2022-10-26T22:43:14.031Z,13.35
2022-10-26T22:46:20.033Z,13.34
2022-10-26T22:49:22.929Z,13.34
2022-10-26T22:52:25.579Z,13.31
2022-10-26T22:55:28.467Z,13.29
2022-10-26T22:58:31.230Z,13.30
2022-10-26T23:01:38.212Z,13.29
2022-10-26T23:04:40.948Z,13.33
2022-10-26T23:07:43.843Z,13.32
2022-10-26T23:10:46.419Z,13.33
2022-10-26T23:13:55.844Z,13.29
2022-10-26T23:16:58.417Z,13.28
2022-10-26T23:20:01.333Z,13.25
2022-10-26T23:23:03.891Z,13.21
2022-10-26T23:26:12.612Z,13.22
2022-10-26T23:29:15.508Z,13.22
2022-10-26T23:32:18.426Z,13.19
2022-10-26T23:35:21.034Z,13.13
2022-10-26T23:38:24.736Z,13.10
2022-10-26T23:41:28.957Z,13.04
2022-10-26T23:44:31.786Z,13.00
2022-10-26T23:47:34.394Z,12.94
2022-10-26T23:50:37.294Z,12.90
2022-10-26T23:53:39.840Z,12.85
2022-10-26T23:56:42.743Z,12.74
2022-10-26T23:59:45.275Z,12.72
